Time;durP1;ratioP1;P1;durP2;ratioP2;P2;SDS_P1;SDS_P2;PMS_P1;PMS_P2;Temp;Humidity;BMP_temperature;BMP_pressure;BME280_temperature;BME280_humidity;BME280_pressure;Samples;Min_cycle;Max_cycle;Signal;HPM_P1;HPM_P2
2023/07/22 00:02:30;;;;;;;8.93;5.70;;;;;;;13.40;100.00;100329.72;7737930;23;20028;-93
2023/07/22 00:05:33;;;;;;;8.05;5.60;;;;;;;13.41;100.00;100316.56;7674954;23;20443;-93
2023/07/22 00:08:37;;;;;;;10.02;5.47;;;;;;;13.43;100.00;100319.03;7740121;23;20043;-93
2023/07/22 00:11:40;;;;;;;11.38;6.13;;;;;;;13.45;100.00;100322.31;7738908;23;20020;-93
2023/07/22 00:14:42;;;;;;;8.40;5.85;;;;;;;13.41;100.00;100323.56;7739054;23;20454;-95
2023/07/22 00:17:44;;;;;;;9.02;5.90;;;;;;;13.39;100.00;100328.06;7738223;23;20111;-93
2023/07/22 00:20:47;;;;;;;9.48;5.82;;;;;;;13.32;100.00;100327.84;7739069;23;20037;-93
2023/07/22 00:23:49;;;;;;;10.15;5.43;;;;;;;13.26;100.00;100336.19;7738994;23;20347;-93
2023/07/22 00:26:51;;;;;;;9.57;5.97;;;;;;;13.27;100.00;100338.69;7740108;23;20107;-93
2023/07/22 00:29:53;;;;;;;8.75;5.50;;;;;;;13.26;100.00;100333.56;7703298;23;20024;-94
2023/07/22 00:32:55;;;;;;;9.02;5.90;;;;;;;13.34;100.00;100333.69;7710882;23;20495;-93
2023/07/22 00:35:57;;;;;;;9.90;5.70;;;;;;;13.26;100.00;100342.19;7712542;23;20367;-94
2023/07/22 00:39:01;;;;;;;9.02;5.72;;;;;;;13.32;100.00;100335.66;7712036;23;20031;-93
2023/07/22 00:42:08;;;;;;;9.60;5.10;;;;;;;13.30;100.00;100337.56;7712007;23;20016;-94
2023/07/22 00:45:10;;;;;;;8.75;5.75;;;;;;;13.23;100.00;100333.88;7711612;23;20024;-93
2023/07/22 00:48:14;;;;;;;8.63;5.70;;;;;;;13.13;100.00;100333.91;7739710;23;20472;-92
2023/07/22 00:51:17;;;;;;;7.70;5.28;;;;;;;13.08;100.00;100342.13;7739450;23;20024;-93
2023/07/22 00:54:19;;;;;;;9.73;5.93;;;;;;;13.06;100.00;100338.84;7711762;23;20024;-92
2023/07/22 00:57:22;;;;;;;8.90;5.85;;;;;;;13.04;100.00;100333.00;7710767;23;20051;-93
2023/07/22 01:00:24;;;;;;;10.45;5.63;;;;;;;13.05;100.00;100333.81;7711546;23;20466;-93
2023/07/22 01:03:26;;;;;;;11.68;6.43;;;;;;;13.07;100.00;100337.91;7738536;23;20119;-93
2023/07/22 01:06:30;;;;;;;10.35;6.43;;;;;;;13.03;100.00;100333.94;7710387;23;20016;-93
2023/07/22 01:09:38;;;;;;;11.15;6.32;;;;;;;13.01;100.00;100333.25;7738015;23;20089;-94
2023/07/22 01:12:40;;;;;;;10.20;6.00;;;;;;;13.00;100.00;100333.41;7738884;23;20145;-93
2023/07/22 01:15:43;;;;;;;11.57;6.32;;;;;;;12.96;100.00;100335.47;7738449;23;20020;-92
2023/07/22 01:18:47;;;;;;;11.05;6.70;;;;;;;12.88;100.00;100332.75;7709879;23;20031;-94
2023/07/22 01:21:50;;;;;;;10.73;6.75;;;;;;;12.85;100.00;100335.63;7710784;23;20427;-94
2023/07/22 01:24:52;;;;;;;10.10;6.05;;;;;;;12.76;100.00;100336.47;7710480;23;20439;-93
2023/07/22 01:27:54;;;;;;;11.98;5.78;;;;;;;12.69;100.00;100339.66;7711513;23;20024;-93
2023/07/22 01:30:57;;;;;;;8.52;5.82;;;;;;;12.66;100.00;100336.50;7710820;23;20031;-93
2023/07/22 01:33:59;;;;;;;8.88;6.05;;;;;;;12.59;100.00;100335.41;7712329;23;20482;-92
2023/07/22 01:37:04;;;;;;;9.35;6.25;;;;;;;12.52;100.00;100334.31;7712863;23;20020;-93
2023/07/22 01:40:12;;;;;;;10.30;6.00;;;;;;;12.44;100.00;100324.63;7714379;23;20020;-92
2023/07/22 01:43:15;;;;;;;8.93;5.82;;;;;;;12.40;100.00;100324.09;7713509;23;20028;-93
2023/07/22 01:46:17;;;;;;;7.72;5.10;;;;;;;12.35;100.00;100326.28;7740990;23;20453;-93
2023/07/22 01:49:20;;;;;;;7.88;5.13;;;;;;;12.33;100.00;100329.97;7713125;23;20016;-93
2023/07/22 01:52:22;;;;;;;11.23;5.68;;;;;;;12.35;100.00;100323.69;7713752;23;20031;-93
2023/07/22 01:55:24;;;;;;;8.10;5.32;;;;;;;12.36;100.00;100327.09;7688769;23;20024;-92
2023/07/22 01:58:27;;;;;;;10.35;5.13;;;;;;;12.29;100.00;100330.22;7713746;23;20451;-93
2023/07/22 02:01:29;;;;;;;12.07;5.20;;;;;;;12.22;100.00;100326.56;7712924;23;20326;-92
2023/07/22 02:04:31;;;;;;;8.23;4.88;;;;;;;12.17;100.00;100326.13;7714274;23;20020;-92
2023/07/22 02:07:33;;;;;;;9.38;4.82;;;;;;;12.14;100.00;100321.22;7689217;23;20343;-93
2023/07/22 02:10:37;;;;;;;7.50;4.70;;;;;;;12.09;100.00;100318.22;7713854;23;20024;-91
2023/07/22 02:13:39;;;;;;;10.98;4.88;;;;;;;12.05;100.00;100327.25;7712885;23;20027;-92
2023/07/22 02:16:41;;;;;;;9.13;4.63;;;;;;;12.02;100.00;100336.13;7713034;23;20470;-93
2023/07/22 02:19:43;;;;;;;7.05;4.10;;;;;;;12.01;100.00;100341.44;7713850;23;20157;-92
2023/07/22 02:22:45;;;;;;;7.45;4.18;;;;;;;12.03;100.00;100344.72;7712994;23;20024;-94
2023/07/22 02:25:54;;;;;;;6.88;4.55;;;;;;;12.13;100.00;100336.94;7687831;23;20473;-93
2023/07/22 02:28:57;;;;;;;7.13;4.20;;;;;;;12.19;100.00;100334.59;7739613;23;20020;-93
2023/07/22 02:31:59;;;;;;;9.77;4.05;;;;;;;12.24;100.00;100332.41;7713108;23;20584;-93
2023/07/22 02:35:08;;;;;;;9.15;4.25;;;;;;;12.24;100.00;100335.00;7688718;23;20071;-92
2023/07/22 02:38:10;;;;;;;6.88;4.15;;;;;;;12.27;100.00;100339.94;7740493;23;20020;-92
2023/07/22 02:41:12;;;;;;;7.88;4.40;;;;;;;12.33;100.00;100337.75;7712223;23;20031;-93
2023/07/22 02:44:14;;;;;;;8.57;4.65;;;;;;;12.34;100.00;100344.56;7713610;23;20046;-92
2023/07/22 02:47:16;;;;;;;7.22;4.40;;;;;;;12.32;100.00;100349.09;7712965;23;20024;-92
2023/07/22 02:50:20;;;;;;;7.85;4.75;;;;;;;12.31;100.00;100350.06;7713389;23;20020;-92
2023/07/22 02:53:22;;;;;;;10.02;4.78;;;;;;;12.26;100.00;100353.06;7686991;23;20020;-92
2023/07/22 02:56:24;;;;;;;10.00;4.35;;;;;;;12.21;100.00;100361.25;7712874;23;20027;-92
2023/07/22 02:59:27;;;;;;;8.73;4.40;;;;;;;12.15;100.00;100363.53;7739963;23;20365;-92
2023/07/22 03:02:29;;;;;;;9.20;4.72;;;;;;;12.09;100.00;100369.28;7712846;23;20031;-91
2023/07/22 03:05:33;;;;;;;6.53;4.13;;;;;;;12.03;100.00;100362.88;7714089;23;20482;-92
2023/07/22 03:08:36;;;;;;;15.63;6.30;;;;;;;12.02;100.00;100364.66;7739940;23;20023;-92
2023/07/22 03:11:41;;;;;;;9.07;5.00;;;;;;;11.98;100.00;100363.28;7739555;23;20023;-92
2023/07/22 03:14:43;;;;;;;10.32;5.28;;;;;;;11.97;100.00;100369.41;7713549;23;20122;-91
2023/07/22 03:17:45;;;;;;;9.05;5.25;;;;;;;11.94;100.00;100359.28;7712591;23;20020;-92
2023/07/22 03:20:47;;;;;;;8.80;5.05;;;;;;;11.99;100.00;100364.09;7739397;23;20031;-92
2023/07/22 03:23:50;;;;;;;9.10;5.20;;;;;;;12.00;100.00;100370.91;7687270;23;20401;-92
2023/07/22 03:26:52;;;;;;;10.85;6.10;;;;;;;12.04;100.00;100372.28;7737404;23;20028;-92
2023/07/22 03:29:54;;;;;;;10.45;4.78;;;;;;;12.06;100.00;100381.56;7712317;23;20011;-91
2023/07/22 03:32:57;;;;;;;10.13;5.32;;;;;;;12.03;100.00;100381.03;7711859;23;20095;-92
2023/07/22 03:35:59;;;;;;;8.77;5.50;;;;;;;12.04;100.00;100387.84;7712950;23;20090;-91
2023/07/22 03:39:02;;;;;;;10.43;5.80;;;;;;;12.05;100.00;100389.50;7712231;23;20027;-92
2023/07/22 03:42:05;;;;;;;10.82;4.90;;;;;;;12.03;100.00;100391.41;7739216;23;20130;-92
2023/07/22 03:45:10;;;;;;;9.57;5.18;;;;;;;12.01;100.00;100386.34;7713297;23;20024;-91
2023/07/22 03:48:12;;;;;;;10.23;5.38;;;;;;;11.99;100.00;100390.84;7738634;23;20016;-92
2023/07/22 03:51:14;;;;;;;10.20;5.18;;;;;;;11.95;100.00;100389.50;7712594;23;20579;-91
2023/07/22 03:54:22;;;;;;;9.77;5.45;;;;;;;11.94;100.00;100384.41;7738661;23;20366;-91
2023/07/22 03:57:30;;;;;;;7.95;5.03;;;;;;;11.89;100.00;100390.00;7686611;23;20043;-92
2023/07/22 04:00:32;;;;;;;10.15;5.18;;;;;;;11.90;100.00;100390.81;7738878;23;20020;-91
2023/07/22 04:03:34;;;;;;;8.70;5.07;;;;;;;11.88;100.00;100388.38;7711663;23;20111;-91
2023/07/22 04:06:39;;;;;;;11.32;5.25;;;;;;;11.90;100.00;100393.41;7711993;23;20020;-92
2023/07/22 04:09:41;;;;;;;9.15;5.35;;;;;;;11.94;100.00;100393.00;7712020;23;20043;-92
2023/07/22 04:12:43;;;;;;;10.65;5.55;;;;;;;12.01;100.00;100394.13;7738831;23;20020;-92
2023/07/22 04:15:46;;;;;;;10.32;4.57;;;;;;;12.11;100.00;100393.34;7712407;23;20024;-92
2023/07/22 04:18:48;;;;;;;9.43;4.50;;;;;;;12.16;100.00;100401.53;7739380;23;20250;-92
2023/07/22 04:21:50;;;;;;;8.90;4.97;;;;;;;12.21;100.00;100404.53;7738519;23;20027;-92
2023/07/22 04:24:52;;;;;;;8.57;4.82;;;;;;;12.29;100.00;100405.50;7711234;23;20415;-92
2023/07/22 04:27:55;;;;;;;11.88;5.80;;;;;;;12.41;100.00;100397.59;7712610;23;20040;-91
2023/07/22 04:30:59;;;;;;;11.10;5.65;;;;;;;12.51;100.00;100406.19;7711941;23;20442;-93
2023/07/22 04:34:01;;;;;;;11.18;5.63;;;;;;;12.60;100.00;100404.56;7739317;23;20257;-92
2023/07/22 04:37:06;;;;;;;13.05;5.50;;;;;;;12.69;100.00;100399.38;7687493;23;20024;-92
2023/07/22 04:40:13;;;;;;;11.52;5.55;;;;;;;12.77;100.00;100395.25;7738119;23;20187;-92
2023/07/22 04:43:15;;;;;;;11.27;5.65;;;;;;;12.87;100.00;100391.69;7738537;23;20024;-92
2023/07/22 04:46:18;;;;;;;10.35;5.15;;;;;;;13.01;100.00;100398.22;7739192;23;20191;-92
2023/07/22 04:49:20;;;;;;;14.05;4.88;;;;;;;13.06;100.00;100396.00;7711695;23;20024;-92
2023/07/22 04:52:22;;;;;;;9.40;5.70;;;;;;;13.17;100.00;100399.41;7737999;23;20063;-93
2023/07/22 04:55:24;;;;;;;9.10;5.35;;;;;;;13.31;100.00;100399.81;7736065;23;20020;-92
2023/07/22 04:58:26;;;;;;;9.48;5.43;;;;;;;13.44;100.00;100398.66;7738778;23;20020;-92
2023/07/22 05:01:28;;;;;;;9.38;5.07;;;;;;;13.49;100.00;100396.44;7738025;23;20561;-93
2023/07/22 05:04:30;;;;;;;9.25;5.57;;;;;;;13.53;100.00;100397.81;7738832;23;20189;-92
2023/07/22 05:07:32;;;;;;;10.02;5.50;;;;;;;13.61;100.00;100387.50;7738779;23;20028;-92
2023/07/22 05:10:34;;;;;;;11.13;5.53;;;;;;;13.54;100.00;100389.06;7714650;23;20024;-93
2023/07/22 05:13:36;;;;;;;11.27;5.53;;;;;;;13.58;100.00;100387.78;7714870;23;20473;-94
2023/07/22 05:16:41;;;;;;;7.55;4.68;;;;;;;13.60;100.00;100398.88;7743756;23;20351;-93
2023/07/22 05:19:43;;;;;;;12.30;5.72;;;;;;;13.66;100.00;100406.09;7743847;23;20020;-93
2023/07/22 05:22:45;;;;;;;9.00;5.43;;;;;;;13.66;100.00;100403.50;7716602;23;20663;-93
2023/07/22 05:25:54;;;;;;;10.80;5.22;;;;;;;13.70;100.00;100409.25;7716246;23;20031;-93
2023/07/22 05:28:56;;;;;;;11.93;6.25;;;;;;;13.73;100.00;100404.56;7716369;23;20031;-93
2023/07/22 05:31:58;;;;;;;10.88;5.57;;;;;;;13.79;100.00;100408.38;7743666;23;20477;-92
2023/07/22 05:35:01;;;;;;;10.57;5.82;;;;;;;13.93;100.00;100413.06;7743488;23;20016;-94
2023/07/22 05:38:04;;;;;;;9.00;5.63;;;;;;;14.04;100.00;100404.25;7716238;23;20759;-92
2023/07/22 05:41:06;;;;;;;10.48;5.50;;;;;;;14.16;100.00;100408.31;7716786;23;20024;-93
2023/07/22 05:44:08;;;;;;;9.95;5.50;;;;;;;14.25;100.00;100410.97;7742683;23;20332;-94
2023/07/22 05:47:11;;;;;;;9.77;5.53;;;;;;;14.34;100.00;100417.91;7717361;23;20016;-94
2023/07/22 05:50:13;;;;;;;9.63;5.65;;;;;;;14.37;100.00;100418.41;7743299;23;20012;-95
2023/07/22 05:53:15;;;;;;;9.60;5.53;;;;;;;14.38;100.00;100416.63;7743526;23;20138;-95
2023/07/22 05:56:17;;;;;;;8.95;5.63;;;;;;;14.44;100.00;100414.25;7743798;23;20173;-94
2023/07/22 05:59:19;;;;;;;11.82;6.00;;;;;;;14.57;100.00;100418.31;7716695;23;20351;-94
2023/07/22 06:02:23;;;;;;;10.23;6.07;;;;;;;14.85;100.00;100422.44;7717354;23;20058;-94
2023/07/22 06:05:25;;;;;;;8.25;5.10;;;;;;;15.16;100.00;100422.00;7716013;23;20031;-95
2023/07/22 06:08:27;;;;;;;9.45;5.32;;;;;;;15.41;100.00;100427.38;7716900;23;20093;-93
2023/07/22 06:11:31;;;;;;;11.52;5.85;;;;;;;15.52;100.00;100424.47;7715191;23;20020;-94
2023/07/22 06:14:33;;;;;;;9.68;5.97;;;;;;;15.52;100.00;100424.47;7743390;23;20031;-93
2023/07/22 06:17:36;;;;;;;10.55;5.63;;;;;;;15.48;100.00;100431.81;7743974;23;20530;-93
2023/07/22 06:20:38;;;;;;;10.00;6.00;;;;;;;15.55;100.00;100436.38;7743618;23;20047;-94
2023/07/22 06:23:41;;;;;;;12.23;6.60;;;;;;;15.62;100.00;100430.38;7717858;23;20055;-93
2023/07/22 06:26:43;;;;;;;10.23;5.85;;;;;;;15.74;100.00;100432.75;7715954;23;20430;-94
2023/07/22 06:29:45;;;;;;;11.13;6.10;;;;;;;15.77;100.00;100427.22;7742874;23;20016;-94
2023/07/22 06:32:47;;;;;;;10.93;6.13;;;;;;;15.80;100.00;100427.75;7715521;23;20091;-94
2023/07/22 06:35:50;;;;;;;10.07;5.40;;;;;;;15.81;100.00;100424.13;7735300;23;20095;-93
2023/07/22 06:38:55;;;;;;;10.77;6.15;;;;;;;15.83;100.00;100426.59;7715656;23;20020;-94
2023/07/22 06:41:57;;;;;;;7.78;5.60;;;;;;;15.89;100.00;100431.19;7714638;23;20106;-94
2023/07/22 06:45:00;;;;;;;9.57;5.65;;;;;;;15.97;100.00;100427.78;7714435;23;20457;-93
2023/07/22 06:48:02;;;;;;;10.77;5.90;;;;;;;16.09;100.00;100434.34;7689750;23;20443;-94
2023/07/22 06:51:06;;;;;;;10.50;6.13;;;;;;;16.17;100.00;100438.75;7714898;23;20454;-95
2023/07/22 06:54:08;;;;;;;9.80;5.88;;;;;;;16.31;100.00;100427.69;7714807;23;20024;-94
2023/07/22 06:57:10;;;;;;;9.00;5.50;;;;;;;16.46;100.00;100438.34;7711910;23;20339;-93
2023/07/22 07:00:15;;;;;;;9.93;5.68;;;;;;;16.59;100.00;100430.81;7712165;23;20020;-94
2023/07/22 07:03:22;;;;;;;9.80;5.40;;;;;;;16.67;100.00;100441.31;7738160;23;20118;-94
2023/07/22 07:06:24;;;;;;;10.30;5.97;;;;;;;16.79;100.00;100444.41;7740786;23;20565;-93
2023/07/22 07:09:26;;;;;;;11.48;6.72;;;;;;;16.95;100.00;100433.16;7742812;23;20048;-93
2023/07/22 07:12:28;;;;;;;11.93;5.97;;;;;;;17.15;100.00;100431.81;7714182;23;20355;-93
2023/07/22 07:15:30;;;;;;;10.48;6.07;;;;;;;17.23;100.00;100428.34;7740946;23;20381;-93
2023/07/22 07:18:32;;;;;;;11.27;6.50;;;;;;;17.28;100.00;100433.09;7703890;23;20020;-92
2023/07/22 07:21:36;;;;;;;10.20;6.32;;;;;;;17.23;100.00;100428.34;7703495;23;20051;-93
2023/07/22 07:24:38;;;;;;;9.93;6.03;;;;;;;17.38;100.00;100437.16;7742923;23;20419;-93
2023/07/22 07:27:41;;;;;;;9.93;6.25;;;;;;;17.56;100.00;100436.91;7743122;23;20575;-93
2023/07/22 07:30:46;;;;;;;10.00;6.32;;;;;;;17.63;100.00;100431.84;7741763;23;20087;-93
2023/07/22 07:33:49;;;;;;;11.18;5.50;;;;;;;17.75;100.00;100442.75;7715554;23;20030;-94
2023/07/22 07:36:51;;;;;;;9.82;6.43;;;;;;;17.78;100.00;100445.84;7714209;23;20364;-93
2023/07/22 07:39:53;;;;;;;8.88;5.53;;;;;;;17.54;100.00;100444.16;7714604;23;20024;-93
2023/07/22 07:42:55;;;;;;;12.27;6.47;;;;;;;17.34;100.00;100443.72;7689063;23;20451;-94
2023/07/22 07:46:17;;;;;;;11.73;6.55;;;;;;;17.49;100.00;100448.22;7713345;23;20016;-94
2023/07/22 07:49:20;;;;;;;9.50;5.72;;;;;;;17.74;100.00;100449.81;7688884;23;20023;-93
2023/07/22 07:52:26;;;;;;;9.68;5.78;;;;;;;17.82;100.00;100448.97;7713582;23;20027;-96
2023/07/22 07:55:28;;;;;;;9.00;5.55;;;;;;;18.02;100.00;100447.56;7740999;23;20463;-93
2023/07/22 07:58:31;;;;;;;8.15;5.65;;;;;;;18.29;100.00;100455.94;7713978;23;20102;-93
2023/07/22 08:01:33;;;;;;;10.60;5.57;;;;;;;18.40;100.00;100454.72;7714238;23;20083;-94
2023/07/22 08:04:36;;;;;;;9.95;5.53;;;;;;;18.51;100.00;100462.19;7688861;23;20370;-93
2023/07/22 08:07:39;;;;;;;9.65;6.13;;;;;;;18.50;100.00;100466.59;7714633;23;20028;-94
2023/07/22 08:10:44;;;;;;;10.82;5.85;;;;;;;18.43;100.00;100462.22;7715026;23;20019;-94
2023/07/22 08:13:47;;;;;;;8.52;5.72;;;;;;;18.56;100.00;100462.47;7741663;23;20350;-93
2023/07/22 08:16:49;;;;;;;8.57;5.68;;;;;;;18.73;100.00;100466.63;7741101;23;20051;-95
2023/07/22 08:19:54;;;;;;;8.90;6.28;;;;;;;18.79;100.00;100462.50;7714088;23;20145;-93
2023/07/22 08:22:59;;;;;;;9.35;7.18;;;;;;;18.86;100.00;100460.81;7713275;23;20024;-93
2023/07/22 08:26:01;;;;;;;13.48;6.82;;;;;;;19.01;100.00;100463.47;7713398;23;20054;-94
2023/07/22 08:29:03;;;;;;;12.13;6.95;;;;;;;19.24;100.00;100459.97;7714427;23;20016;-94
2023/07/22 08:32:06;;;;;;;10.15;7.05;;;;;;;19.35;100.00;100460.34;7741718;23;20040;-93
2023/07/22 08:35:08;;;;;;;11.65;7.57;;;;;;;19.33;100.00;100467.59;7740669;23;20301;-94
2023/07/22 08:38:10;;;;;;;9.98;6.60;;;;;;;19.48;100.00;100462.34;7740145;23;20018;-94
2023/07/22 08:41:20;;;;;;;9.23;6.88;;;;;;;19.82;100.00;100465.41;7713713;23;20126;-92
2023/07/22 08:44:30;;;;;;;9.48;6.82;;;;;;;20.10;100.00;100462.91;7689707;23;20555;-93
2023/07/22 08:47:34;;;;;;;;;;;;;;;20.32;100.00;100469.84;7705268;23;20016;-93
2023/07/22 08:50:46;;;;;;;10.18;7.35;;;;;;;20.40;100.00;100461.03;7743379;23;20325;-93
2023/07/22 08:53:50;;;;;;;11.93;7.82;;;;;;;20.54;100.00;100464.59;7743243;23;20047;-93
2023/07/22 08:57:15;;;;;;;11.40;7.57;;;;;;;20.75;100.00;100463.81;7743646;23;20020;-93
2023/07/22 09:00:18;;;;;;;12.85;8.00;;;;;;;20.69;100.00;100468.00;7744248;23;20488;-95
2023/07/22 09:03:21;;;;;;;12.88;8.43;;;;;;;20.62;100.00;100465.31;7716890;23;20024;-93
2023/07/22 09:06:23;;;;;;;12.45;8.55;;;;;;;20.44;100.00;100467.53;7743597;23;20091;-93
2023/07/22 09:09:26;;;;;;;12.70;9.40;;;;;;;20.40;100.00;100463.66;7743361;23;20020;-93
2023/07/22 09:12:29;;;;;;;11.13;7.75;;;;;;;20.39;100.00;100462.00;7716811;23;20137;-93
2023/07/22 09:15:36;;;;;;;12.15;8.40;;;;;;;20.54;100.00;100460.13;7742130;23;20024;-93
2023/07/22 09:18:39;;;;;;;17.38;8.65;;;;;;;20.65;100.00;100448.34;7716869;23;20024;-92
2023/07/22 09:21:51;;;;;;;12.63;8.30;;;;;;;20.67;100.00;100442.88;7716356;23;20016;-93
2023/07/22 09:24:53;;;;;;;12.38;8.30;;;;;;;20.88;100.00;100450.75;7716476;23;20646;-93
2023/07/22 09:28:00;;;;;;;13.07;8.27;;;;;;;21.18;100.00;100454.00;7690323;23;20027;-93
2023/07/22 09:31:07;;;;;;;11.18;6.97;;;;;;;21.36;100.00;100448.22;7716737;23;20338;-94
2023/07/22 09:34:11;;;;;;;11.63;7.65;;;;;;;21.35;100.00;100443.19;7716600;23;20454;-93
2023/07/22 09:37:16;;;;;;;11.32;8.05;;;;;;;21.27;100.00;100442.31;7743953;23;20016;-93
2023/07/22 09:40:26;;;;;;;11.07;7.18;;;;;;;21.43;100.00;100437.78;7743930;23;20504;-93
2023/07/22 09:43:30;;;;;;;11.23;7.22;;;;;;;21.45;100.00;100436.56;7743690;23;20020;-92
2023/07/22 09:46:35;;;;;;;8.65;6.55;;;;;;;21.49;100.00;100442.28;7716396;23;20093;-93
2023/07/22 09:49:42;;;;;;;7.28;5.78;;;;;;;21.55;100.00;100438.84;7716556;23;20147;-93
2023/07/22 09:52:51;;;;;;;9.27;6.28;;;;;;;21.59;100.00;100442.75;7716080;23;20026;-93
2023/07/22 09:55:53;;;;;;;10.02;6.63;;;;;;;21.57;100.00;100444.75;7715302;23;20122;-93
2023/07/22 09:59:07;;;;;;;8.70;5.65;;;;;;;21.33;100.00;100440.72;7716478;23;20087;-93
2023/07/22 10:02:11;;;;;;;8.25;5.32;;;;;;;21.10;100.00;100434.94;7716085;23;20024;-93
2023/07/22 10:05:17;;;;;;;12.25;5.60;;;;;;;21.07;100.00;100444.84;7715012;23;20020;-93
2023/07/22 10:08:24;;;;;;;9.85;6.43;;;;;;;20.93;100.00;100437.84;7715869;23;20442;-93
2023/07/22 10:11:28;;;;;;;9.75;5.47;;;;;;;21.17;100.00;100433.97;7742486;23;20016;-93
2023/07/22 10:14:30;;;;;;;6.82;4.75;;;;;;;21.27;100.00;100425.72;7743134;23;20592;-93
2023/07/22 10:17:34;;;;;;;8.70;5.40;;;;;;;21.55;100.00;100422.25;7743455;23;20020;-92
2023/07/22 10:20:38;;;;;;;6.75;4.32;;;;;;;21.73;100.00;100430.41;7742973;23;20086;-94
2023/07/22 10:23:40;;;;;;;7.50;4.80;;;;;;;21.87;100.00;100424.19;7715200;23;20023;-92
2023/07/22 10:26:45;;;;;;;5.75;4.05;;;;;;;22.06;100.00;100427.06;7742893;23;20528;-92
2023/07/22 10:29:49;;;;;;;5.68;4.32;;;;;;;22.39;100.00;100427.19;7714818;23;20129;-93
2023/07/22 10:32:52;;;;;;;6.30;4.50;;;;;;;22.47;100.00;100421.72;7741979;23;20020;-93
2023/07/22 10:36:09;;;;;;;6.43;4.35;;;;;;;22.23;100.00;100427.56;7714838;23;20450;-93
2023/07/22 10:39:25;;;;;;;6.40;4.10;;;;;;;21.82;100.00;100420.53;7715365;23;20101;-93
2023/07/22 10:42:32;;;;;;;6.45;4.05;;;;;;;21.70;100.00;100425.56;7715357;23;20730;-92
2023/07/22 10:45:40;;;;;;;6.10;3.75;;;;;;;22.03;100.00;100423.00;7742402;23;20024;-92
2023/07/22 10:48:42;;;;;;;6.35;3.97;;;;;;;22.72;100.00;100421.09;7742264;23;20020;-92
2023/07/22 10:51:50;;;;;;;4.75;3.67;;;;;;;23.03;100.00;100428.44;7715357;23;20016;-92
2023/07/22 10:54:52;;;;;;;7.57;3.80;;;;;;;23.29;100.00;100424.91;7715071;23;20027;-92
2023/07/22 10:57:55;;;;;;;6.75;4.05;;;;;;;23.56;100.00;100425.63;7741594;23;20020;-92
2023/07/22 11:01:32;;;;;;;5.47;4.20;;;;;;;23.82;100.00;100408.88;7741845;23;20016;-92
2023/07/22 11:04:35;;;;;;;4.63;3.20;;;;;;;23.97;100.00;100415.72;7552842;23;20109;-93
2023/07/22 11:08:03;;;;;;;10.77;3.53;;;;;;;23.36;100.00;100420.44;7551853;23;20026;-93
2023/07/22 11:11:05;;;;;;;4.80;3.58;;;;;;;22.50;100.00;100410.75;7552873;23;20156;-93
2023/07/22 11:14:14;;;;;;;6.20;4.40;;;;;;;22.20;100.00;100410.31;7552924;23;20019;-93
2023/07/22 11:17:26;;;;;;;6.13;4.05;;;;;;;21.90;100.00;100407.16;7576612;23;20635;-94
2023/07/22 11:20:31;;;;;;;5.32;4.25;;;;;;;21.39;100.00;100407.56;7528745;23;20432;-94
2023/07/22 11:23:36;;;;;;;6.07;4.05;;;;;;;20.88;100.00;100406.03;7518281;23;20106;-92
2023/07/22 11:26:40;;;;;;;6.32;4.03;;;;;;;20.83;100.00;100406.59;7552166;23;20098;-93
2023/07/22 11:29:43;;;;;;;6.00;4.43;;;;;;;21.21;100.00;100403.59;7552773;23;20033;-93
2023/07/22 11:32:46;;;;;;;6.25;4.10;;;;;;;21.88;100.00;100398.66;7576909;23;20026;-93
2023/07/22 11:35:52;;;;;;;5.65;4.10;;;;;;;22.52;100.00;100394.72;7528933;23;20029;-93
2023/07/22 11:38:54;;;;;;;5.97;4.15;;;;;;;22.62;100.00;100386.41;7555552;23;20071;-92
2023/07/22 11:41:56;;;;;;;5.50;3.88;;;;;;;22.36;100.00;100386.19;7742042;23;20390;-93
2023/07/22 11:44:58;;;;;;;6.10;3.97;;;;;;;21.89;100.00;100381.84;7714680;23;20020;-94
2023/07/22 11:48:01;;;;;;;6.50;4.38;;;;;;;21.40;100.00;100390.78;7714370;23;20468;-93
2023/07/22 11:51:06;;;;;;;7.72;4.50;;;;;;;20.98;100.00;100385.44;7741354;23;20083;-94
2023/07/22 11:54:08;;;;;;;5.82;4.13;;;;;;;20.65;100.00;100391.28;7741097;23;20018;-93
2023/07/22 11:57:25;;;;;;;5.25;3.90;;;;;;;20.55;100.00;100390.81;7689487;23;20470;-93
2023/07/22 12:00:28;;;;;;;6.57;4.80;;;;;;;20.64;100.00;100392.31;7714961;23;20022;-93
2023/07/22 12:03:36;;;;;;;7.80;5.10;;;;;;;20.91;100.00;100386.41;7741718;23;20016;-93
2023/07/22 12:06:38;;;;;;;6.97;4.78;;;;;;;21.29;100.00;100385.03;7715115;23;20024;-92
2023/07/22 12:09:40;;;;;;;6.57;4.72;;;;;;;21.90;100.00;100378.19;7741036;23;20094;-93
2023/07/22 12:12:45;;;;;;;7.45;4.68;;;;;;;22.63;100.00;100385.38;7741209;23;20505;-91
2023/07/22 12:16:04;;;;;;;6.00;4.53;;;;;;;23.30;100.00;100371.06;7715712;23;20020;-92
2023/07/22 12:19:08;;;;;;;7.10;4.75;;;;;;;23.57;100.00;100377.03;7741390;23;20218;-93
2023/07/22 12:22:10;;;;;;;6.82;4.07;;;;;;;23.81;100.00;100375.53;7740949;23;20059;-92
2023/07/22 12:25:13;;;;;;;5.38;4.35;;;;;;;23.86;100.00;100374.91;7740449;23;20035;-92
2023/07/22 12:28:19;;;;;;;6.88;4.78;;;;;;;24.13;100.00;100362.31;7741859;23;20437;-92
2023/07/22 12:31:21;;;;;;;6.97;4.63;;;;;;;24.35;100.00;100361.94;7742006;23;20193;-92
2023/07/22 12:34:23;;;;;;;7.25;4.65;;;;;;;24.33;100.00;100359.53;7742246;23;20469;-91
2023/07/22 12:37:26;;;;;;;6.63;4.75;;;;;;;24.39;100.00;100352.56;7714372;23;20016;-92
2023/07/22 12:40:30;;;;;;;5.80;4.68;;;;;;;24.42;100.00;100352.13;7741957;23;20393;-93
2023/07/22 12:43:32;;;;;;;7.00;4.70;;;;;;;24.27;100.00;100353.28;7689213;23;20428;-92
2023/07/22 12:46:34;;;;;;;5.18;4.20;;;;;;;23.92;100.00;100352.09;7714490;23;20027;-92
2023/07/22 12:49:37;;;;;;;5.20;4.25;;;;;;;23.32;100.00;100352.38;7714334;23;20107;-93
2023/07/22 12:52:42;;;;;;;6.90;4.75;;;;;;;22.90;100.00;100344.72;7718303;23;20476;-96
2023/07/22 12:55:44;;;;;;;5.28;4.45;;;;;;;22.88;100.00;100343.31;7744863;23;20016;-96
2023/07/22 12:58:47;;;;;;;7.22;4.60;;;;;;;23.37;100.00;100349.91;7743984;23;20520;-95
2023/07/22 13:01:53;;;;;;;7.72;4.68;;;;;;;23.90;100.00;100346.19;7717088;23;20024;-96
2023/07/22 13:04:55;;;;;;;5.05;4.25;;;;;;;24.18;100.00;100333.41;7743643;23;20023;-96
2023/07/22 13:08:00;;;;;;;4.78;4.38;;;;;;;24.31;100.00;100329.81;7742831;23;20373;-95
2023/07/22 13:11:03;;;;;;;6.38;4.40;;;;;;;24.69;100.00;100318.31;7740925;23;20027;-96
2023/07/22 13:14:05;;;;;;;4.97;4.00;;;;;;;25.41;100.00;100321.16;7741004;23;20020;-95
2023/07/22 13:17:07;;;;;;;6.32;4.43;;;;;;;25.64;100.00;100322.28;7741199;23;20016;-96
2023/07/22 13:20:11;;;;;;;7.25;4.65;;;;;;;25.54;100.00;100314.91;7712693;23;20051;-96
2023/07/22 13:23:13;;;;;;;6.13;4.47;;;;;;;25.21;100.00;100318.78;7740823;23;20024;-95
2023/07/22 13:26:15;;;;;;;6.45;4.68;;;;;;;24.98;100.00;100311.47;7741275;23;20020;-95
2023/07/22 13:29:17;;;;;;;6.30;4.15;;;;;;;24.59;100.00;100310.88;7743089;23;20094;-96
2023/07/22 13:32:19;;;;;;;8.32;4.47;;;;;;;24.43;100.00;100312.22;7742302;23;20030;-96
2023/07/22 13:35:22;;;;;;;5.95;4.65;;;;;;;24.82;100.00;100302.31;7743544;23;20027;-95
2023/07/22 13:38:24;;;;;;;5.78;4.45;;;;;;;25.40;98.01;100297.56;7744243;23;20106;-96
2023/07/22 13:41:26;;;;;;;5.63;4.13;;;;;;;25.46;91.71;100294.78;7744997;23;20091;-96
2023/07/22 13:44:29;;;;;;;7.93;3.88;;;;;;;25.23;88.07;100303.47;7719011;23;20097;-96
2023/07/22 13:47:31;;;;;;;4.82;4.32;;;;;;;24.99;91.54;100307.78;7722575;23;20031;-94
2023/07/22 13:50:33;;;;;;;5.57;4.30;;;;;;;24.78;91.54;100301.13;7733908;23;20023;-96
2023/07/22 13:53:38;;;;;;;6.97;4.55;;;;;;;24.62;96.21;100294.56;7746061;23;20103;-96
2023/07/22 13:56:43;;;;;;;6.25;4.60;;;;;;;24.44;97.34;100299.78;7744730;23;20120;-95
2023/07/22 13:59:45;;;;;;;5.05;4.15;;;;;;;24.55;100.00;100293.81;7745027;23;20701;-96
2023/07/22 14:02:48;;;;;;;5.20;4.60;;;;;;;25.15;96.69;100279.91;7716417;23;20016;-96